Time;durP1;ratioP1;P1;durP2;ratioP2;P2;SDS_P1;SDS_P2;PMS_P1;PMS_P2;Temp;Humidity;BMP_temperature;BMP_pressure;BME280_temperature;BME280_humidity;BME280_pressure;Samples;Min_cycle;Max_cycle;Signal;HPM_P1;HPM_P2
2022/02/24 00:00:19;;;;;;;;;5.50;5.50;;;;;18.90;37.34;101392.06;5077261;27;45844;-55
2022/02/24 00:02:45;;;;;;;;;3.00;3.00;;;;;18.90;37.43;101387.66;5077183;27;45442;-54
2022/02/24 00:05:11;;;;;;;;;3.00;3.00;;;;;18.89;37.06;101383.31;5076708;27;46578;-56
2022/02/24 00:07:36;;;;;;;;;3.00;3.00;;;;;18.90;37.46;101392.06;5076818;27;45365;-54
2022/02/24 00:10:03;;;;;;;;;3.25;3.25;;;;;18.90;37.77;101389.44;5075772;27;45802;-55
2022/02/24 00:12:29;;;;;;;;;2.00;0.00;;;;;18.90;37.47;101373.69;5077431;27;45447;-55
2022/02/24 00:14:56;;;;;;;;;7.25;4.25;;;;;18.89;37.60;101367.56;5076588;27;46080;-56
2022/02/24 00:17:21;;;;;;;;;3.75;3.75;;;;;18.89;37.60;101369.34;5076706;27;45793;-55
2022/02/24 00:19:46;;;;;;;;;4.75;4.00;;;;;18.89;37.21;101370.19;5076931;27;45220;-53
2022/02/24 00:22:13;;;;;;;;;6.00;5.25;;;;;18.89;37.57;101364.09;5077033;27;45214;-57
2022/02/24 00:24:38;;;;;;;;;7.00;3.75;;;;;18.88;37.27;101359.75;5076603;27;46367;-56
2022/02/24 00:27:04;;;;;;;;;3.00;3.00;;;;;18.88;37.22;101357.97;5092041;27;45335;-55
2022/02/24 00:29:29;;;;;;;;;4.25;4.25;;;;;18.89;37.55;101359.69;5076921;27;45435;-53
2022/02/24 00:31:55;;;;;;;;;6.50;4.00;;;;;18.89;37.27;101358.84;5076892;27;45575;-55
2022/02/24 00:34:23;;;;;;;;;4.25;4.25;;;;;18.89;37.54;101353.59;5092043;27;46948;-52
2022/02/24 00:36:53;;;;;;;;;5.00;5.00;;;;;18.89;37.29;101348.34;5076527;27;45413;-55
2022/02/24 00:39:20;;;;;;;;;4.75;4.75;;;;;18.87;37.67;101345.75;5076473;28;45318;-55
2022/02/24 00:41:46;;;;;;;;;5.00;3.75;;;;;18.84;37.57;101341.47;5076664;28;45315;-56
2022/02/24 00:44:12;;;;;;;;;4.00;4.00;;;;;18.88;37.61;101341.38;5074983;27;47344;-56
2022/02/24 00:46:38;;;;;;;;;6.00;4.75;;;;;18.88;37.43;101333.50;5076254;27;45953;-55
2022/02/24 00:49:03;;;;;;;;;5.75;4.00;;;;;18.88;37.62;101334.34;5076695;27;45401;-55
2022/02/24 00:51:31;;;;;;;;;4.00;4.00;;;;;18.88;37.47;101334.34;5076590;27;45613;-56
2022/02/24 00:53:57;;;;;;;;;5.25;4.00;;;;;18.88;37.63;101333.50;5074878;28;47689;-56
2022/02/24 00:56:22;;;;;;;;;4.00;4.00;;;;;18.88;37.78;101328.25;5076248;27;45298;-55
2022/02/24 00:58:47;;;;;;;;;4.00;0.75;;;;;18.86;37.61;101323.03;5076314;27;45451;-57
2022/02/24 01:01:13;;;;;;;;;3.00;3.00;;;;;18.87;37.55;101313.41;5076398;27;45260;-55
2022/02/24 01:03:38;;;;;;;;;4.25;4.00;;;;;18.87;37.57;101310.75;5076049;27;46195;-57
2022/02/24 01:06:03;;;;;;;;;5.00;5.00;;;;;18.88;37.61;101312.47;5076209;27;48471;-52
2022/02/24 01:08:29;;;;;;;;;3.00;3.00;;;;;18.86;37.69;101307.28;5076217;27;45505;-56
2022/02/24 01:10:54;;;;;;;;;5.00;5.00;;;;;18.86;37.82;101307.28;5076343;27;45231;-53
2022/02/24 01:13:20;;;;;;;;;4.00;4.00;;;;;18.88;37.69;101296.72;5075919;27;45402;-52
2022/02/24 01:15:45;;;;;;;;;5.00;4.50;;;;;18.87;37.56;101295.00;5075907;27;45729;-56
2022/02/24 01:18:12;;;;;;;;;4.00;4.00;;;;;18.87;37.83;101298.47;5076144;27;45911;-55
2022/02/24 01:20:38;;;;;;;;;3.75;3.50;;;;;18.88;37.65;101299.34;5076384;27;45394;-54
2022/02/24 01:23:05;;;;;;;;;6.50;5.00;;;;;18.88;37.85;101300.19;5076129;27;45464;-55
2022/02/24 01:25:32;;;;;;;;;5.00;5.00;;;;;18.89;37.92;101280.03;5075854;27;45346;-56
2022/02/24 01:27:58;;;;;;;;;5.00;5.00;;;;;18.88;37.78;101287.06;5076011;27;45504;-55
2022/02/24 01:30:23;;;;;;;;;6.50;4.25;;;;;18.88;37.48;101286.22;5076079;27;45424;-55
2022/02/24 01:32:49;;;;;;;;;5.75;4.75;;;;;18.87;37.90;101293.22;5075706;27;45352;-56
2022/02/24 01:35:14;;;;;;;;;5.00;5.00;;;;;18.89;37.75;101282.69;5075869;27;45173;-55
2022/02/24 01:37:39;;;;;;;;;5.00;5.00;;;;;18.89;37.68;101280.03;5075721;27;45354;-54
2022/02/24 01:40:06;;;;;;;;;5.75;5.00;;;;;18.87;37.75;101271.38;5078157;27;45242;-55
2022/02/24 01:42:31;;;;;;;;;5.00;4.25;;;;;18.90;37.97;101279.13;5077729;28;45489;-55
2022/02/24 01:44:57;;;;;;;;;7.00;4.00;;;;;18.88;37.90;101273.09;5078986;27;45522;-55
2022/02/24 01:47:22;;;;;;;;;5.00;4.50;;;;;18.88;37.67;101278.34;5079214;27;45436;-56
2022/02/24 01:49:48;;;;;;;;;6.00;4.75;;;;;18.87;37.88;101276.63;5079416;27;45560;-56
2022/02/24 01:52:14;;;;;;;;;5.00;4.25;;;;;18.88;37.70;101278.34;5078912;27;45325;-54
2022/02/24 01:54:41;;;;;;;;;5.50;4.00;;;;;18.89;37.80;101280.03;5078925;27;45362;-57
2022/02/24 01:57:08;;;;;;;;;4.75;3.50;;;;;18.89;37.91;101287.94;5079236;27;45245;-54
2022/02/24 01:59:33;;;;;;;;;4.25;4.00;;;;;18.88;38.09;101276.56;5079388;27;45230;-56
2022/02/24 02:01:59;;;;;;;;;4.75;4.75;;;;;18.86;37.91;101249.50;5077349;27;48622;-56
2022/02/24 02:04:25;;;;;;;;;4.75;4.00;;;;;18.86;37.68;101228.47;5078820;27;45459;-56
2022/02/24 02:06:50;;;;;;;;;6.00;4.25;;;;;18.87;37.84;101219.69;5078881;27;45246;-53
2022/02/24 02:09:17;;;;;;;;;5.25;5.00;;;;;18.85;37.78;101219.75;5094626;27;45538;-52
2022/02/24 02:11:43;;;;;;;;;3.00;2.50;;;;;18.85;37.76;101230.25;5078763;27;45463;-54
2022/02/24 02:14:10;;;;;;;;;5.00;3.50;;;;;18.86;38.15;101231.09;5078640;27;45483;-53
2022/02/24 02:16:35;;;;;;;;;3.75;3.00;;;;;18.87;37.98;101229.34;5079163;27;45326;-53
2022/02/24 02:19:01;;;;;;;;;7.00;7.00;;;;;18.87;37.89;101229.34;5077682;28;45328;-52
2022/02/24 02:21:30;;;;;;;;;4.00;4.00;;;;;18.87;38.03;101216.22;5078347;27;46033;-53
2022/02/24 02:23:56;;;;;;;;;4.75;4.75;;;;;18.85;37.88;101213.66;5078433;27;45341;-53
2022/02/24 02:26:21;;;;;;;;;8.00;5.00;;;;;18.85;38.16;101211.88;5077360;28;45515;-52
2022/02/24 02:28:47;;;;;;;;;4.75;3.75;;;;;18.85;38.29;101209.25;5078591;27;45597;-53
2022/02/24 02:31:12;;;;;;;;;5.00;5.00;;;;;18.85;38.00;101205.78;5078455;27;45398;-53
2022/02/24 02:33:37;;;;;;;;;3.50;3.50;;;;;18.86;38.31;101212.72;5078598;27;45424;-53
2022/02/24 02:36:03;;;;;;;;;5.00;5.00;;;;;18.85;38.19;101206.63;5078330;27;45413;-53
2022/02/24 02:38:28;;;;;;;;;4.00;4.00;;;;;18.85;37.86;101211.88;5078550;27;45390;-54
2022/02/24 02:40:54;;;;;;;;;5.50;4.25;;;;;18.84;38.12;101198.81;5076883;27;48519;-55
2022/02/24 02:43:19;;;;;;;;;4.25;4.25;;;;;18.81;38.15;101197.16;5078098;27;45271;-54
2022/02/24 02:45:49;;;;;;;;;8.25;5.00;;;;;18.85;38.32;101193.50;5078551;27;45342;-51
2022/02/24 02:48:14;;;;;;;;;4.75;4.25;;;;;18.85;38.51;101195.28;5078385;27;45394;-51
2022/02/24 02:50:39;;;;;;;;;6.00;5.25;;;;;18.85;38.03;101200.53;5078329;27;45231;-50
2022/02/24 02:53:05;;;;;;;;;3.50;3.25;;;;;18.84;38.10;101197.03;5078066;27;45335;-53
2022/02/24 02:55:31;;;;;;;;;4.50;4.50;;;;;18.83;38.10;101190.06;5078266;27;45673;-53
2022/02/24 02:57:57;;;;;;;;;5.00;4.25;;;;;18.83;38.06;101184.00;5078121;27;45570;-55
2022/02/24 03:00:22;;;;;;;;;3.25;3.25;;;;;18.83;38.18;101182.19;5077888;27;45429;-50
2022/02/24 03:02:47;;;;;;;;;3.25;3.25;;;;;18.84;38.42;101176.03;5077850;27;45453;-52
2022/02/24 03:05:13;;;;;;;;;4.00;4.00;;;;;18.83;38.32;101174.31;5078087;27;45299;-53
2022/02/24 03:07:38;;;;;;;;;5.25;5.00;;;;;18.81;38.16;101170.91;5078321;27;45460;-53
2022/02/24 03:10:06;;;;;;;;;4.50;4.25;;;;;18.84;38.19;101175.19;5077800;27;45377;-55
2022/02/24 03:12:35;;;;;;;;;4.75;4.00;;;;;18.84;38.14;101167.31;5077756;27;45343;-51
2022/02/24 03:15:02;;;;;;;;;5.75;4.00;;;;;18.83;38.41;101155.94;5077733;27;45311;-53
2022/02/24 03:17:27;;;;;;;;;5.00;5.00;;;;;18.82;38.53;101145.50;5077828;27;45578;-54
2022/02/24 03:19:53;;;;;;;;;2.00;2.00;;;;;18.82;38.33;101151.59;5076518;27;46967;-50
2022/02/24 03:22:18;;;;;;;;;3.25;3.25;;;;;18.82;38.18;101154.22;5077670;27;45266;-55
2022/02/24 03:24:44;;;;;;;;;4.00;2.25;;;;;18.79;38.34;101157.00;5077750;27;45382;-55
2022/02/24 03:27:09;;;;;;;;;4.00;3.00;;;;;18.83;38.57;101157.72;5077964;27;45410;-55
2022/02/24 03:29:34;;;;;;;;;3.25;3.25;;;;;18.81;38.14;101152.53;5077462;27;46209;-51
2022/02/24 03:32:01;;;;;;;;;5.75;3.50;;;;;18.81;38.42;101147.25;5077386;27;45244;-51
2022/02/24 03:34:26;;;;;;;;;7.25;4.50;;;;;18.82;38.33;101142.88;5077522;27;45322;-52
2022/02/24 03:36:52;;;;;;;;;4.75;4.00;;;;;18.82;38.28;101143.72;5077503;27;45539;-53
2022/02/24 03:39:18;;;;;;;;;3.50;3.50;;;;;18.79;38.32;101122.88;5077146;27;45555;-55
2022/02/24 03:41:43;;;;;;;;;6.00;3.00;;;;;18.79;38.23;101133.38;5077232;27;45337;-53
2022/02/24 03:44:08;;;;;;;;;3.75;3.00;;;;;18.80;38.64;101140.31;5077681;27;45283;-50
2022/02/24 03:46:33;;;;;;;;;5.25;5.00;;;;;18.81;38.42;101134.13;5077513;27;45178;-54
2022/02/24 03:48:59;;;;;;;;;5.25;4.75;;;;;18.79;38.36;101133.38;5077120;27;46135;-55
2022/02/24 03:51:24;;;;;;;;;3.25;3.25;;;;;18.79;38.48;101136.00;5092839;27;45518;-52
2022/02/24 03:53:50;;;;;;;;;6.25;4.50;;;;;18.79;38.35;101130.75;5077049;27;45385;-54
2022/02/24 03:56:15;;;;;;;;;4.00;4.00;;;;;18.80;38.36;101114.03;5077225;27;45549;-55
2022/02/24 03:58:40;;;;;;;;;3.00;3.00;;;;;18.81;38.36;101115.75;5077213;27;47701;-55
2022/02/24 04:01:06;;;;;;;;;4.00;4.00;;;;;18.78;38.28;101105.41;5077012;27;45295;-54
2022/02/24 04:03:31;;;;;;;;;4.50;4.50;;;;;18.79;38.42;101095.75;5076448;27;45494;-55
2022/02/24 04:05:56;;;;;;;;;5.50;3.75;;;;;18.77;38.38;101101.06;5077174;27;45452;-52
2022/02/24 04:08:22;;;;;;;;;3.75;3.25;;;;;18.78;38.42;101104.53;5076703;27;45452;-51
2022/02/24 04:10:47;;;;;;;;;4.50;4.50;;;;;18.79;38.53;101098.38;5076834;27;45508;-54
2022/02/24 04:13:13;;;;;;;;;4.25;4.25;;;;;18.79;38.50;101099.25;5077287;27;45373;-55
2022/02/24 04:15:38;;;;;;;;;4.25;3.75;;;;;18.79;38.43;101098.38;5076954;27;45323;-53
2022/02/24 04:18:05;;;;;;;;;4.50;4.50;;;;;18.78;38.41;101094.91;5076480;27;46437;-55
2022/02/24 04:20:31;;;;;;;;;4.50;3.25;;;;;18.76;38.66;101085.38;5076688;28;45859;-51
2022/02/24 04:22:56;;;;;;;;;4.00;4.00;;;;;18.77;38.64;101085.31;5075363;28;45374;-53
2022/02/24 04:25:21;;;;;;;;;4.00;4.00;;;;;18.79;38.46;101088.72;5076937;27;45426;-55
2022/02/24 04:27:48;;;;;;;;;5.00;5.00;;;;;18.79;38.49;101082.63;5076573;27;45966;-55
2022/02/24 04:30:15;;;;;;;;;4.75;3.50;;;;;18.79;38.61;101088.72;5076961;27;46310;-55
2022/02/24 04:32:41;;;;;;;;;4.00;3.75;;;;;18.79;38.41;101091.34;5076949;27;45342;-53
2022/02/24 04:35:07;;;;;;;;;5.00;3.00;;;;;18.78;38.34;101094.91;5076784;28;45379;-51
2022/02/24 04:37:33;;;;;;;;;4.00;4.00;;;;;18.78;38.71;101089.66;5076315;27;45481;-55
2022/02/24 04:39:58;;;;;;;;;3.25;3.25;;;;;18.79;38.56;101091.34;5076314;28;45314;-56
2022/02/24 04:42:24;;;;;;;;;3.00;3.00;;;;;18.79;38.42;101091.34;5076518;27;45624;-55
2022/02/24 04:44:49;;;;;;;;;2.75;2.50;;;;;18.77;38.69;101087.94;5076599;27;45547;-53
2022/02/24 04:47:14;;;;;;;;;7.50;4.00;;;;;18.77;38.42;101090.56;5075304;27;48456;-55
2022/02/24 04:49:40;;;;;;;;;4.75;4.75;;;;;18.77;38.64;101087.94;5075133;28;45527;-55
2022/02/24 04:52:06;;;;;;;;;3.00;3.00;;;;;18.77;38.50;101085.31;5076474;27;45447;-54
2022/02/24 04:54:31;;;;;;;;;4.75;3.00;;;;;18.77;38.27;101080.06;5076559;27;45605;-54
2022/02/24 04:56:56;;;;;;;;;5.00;3.50;;;;;18.77;38.57;101081.81;5076111;27;45224;-54
2022/02/24 04:59:22;;;;;;;;;4.00;3.00;;;;;18.77;38.74;101081.81;5076148;27;45237;-52
2022/02/24 05:01:47;;;;;;;;;7.25;4.00;;;;;18.75;38.39;101079.28;5076264;27;45455;-52
2022/02/24 05:04:12;;;;;;;;;3.00;3.00;;;;;18.76;38.61;101078.34;5076693;27;45172;-52
2022/02/24 05:06:38;;;;;;;;;4.25;3.00;;;;;18.77;38.42;101072.19;5076154;27;46435;-54
2022/02/24 05:09:03;;;;;;;;;1.50;1.50;;;;;18.76;38.70;101065.22;5075984;27;45223;-54
2022/02/24 05:11:28;;;;;;;;;3.50;3.00;;;;;18.77;38.52;101068.69;5076209;27;45513;-55
2022/02/24 05:13:54;;;;;;;;;3.00;3.00;;;;;18.77;38.59;101068.69;5076479;27;45628;-54
2022/02/24 05:16:19;;;;;;;;;5.00;3.00;;;;;18.76;38.73;101059.09;5079333;27;45535;-53
2022/02/24 05:18:44;;;;;;;;;3.00;2.50;;;;;18.77;38.42;101066.94;5079825;27;45218;-55
2022/02/24 05:21:10;;;;;;;;;5.00;4.00;;;;;18.76;38.69;101064.34;5079377;28;45651;-53
2022/02/24 05:23:37;;;;;;;;;4.00;4.00;;;;;18.76;38.58;101065.22;5078251;27;45225;-55
2022/02/24 05:26:02;;;;;;;;;4.00;4.00;;;;;18.76;38.65;101061.72;5079372;27;46406;-54
2022/02/24 05:28:28;;;;;;;;;3.25;3.25;;;;;18.76;38.69;101065.22;5079316;27;45426;-53
2022/02/24 05:30:58;;;;;;;;;4.75;3.25;;;;;18.75;38.26;101058.25;5079537;27;45287;-52
2022/02/24 05:33:24;;;;;;;;;6.50;4.50;;;;;18.76;38.45;101052.09;5079689;27;45425;-53
2022/02/24 05:35:50;;;;;;;;;2.25;2.25;;;;;18.76;38.63;101054.72;5079298;27;46051;-52
2022/02/24 05:38:15;;;;;;;;;4.25;3.50;;;;;18.76;38.49;101049.47;5079353;27;45264;-55
2022/02/24 05:40:40;;;;;;;;;5.00;3.75;;;;;18.74;38.35;101047.84;5079399;27;45245;-52
2022/02/24 05:43:06;;;;;;;;;4.00;3.00;;;;;18.74;38.32;101048.69;5079784;27;45582;-51
2022/02/24 05:45:32;;;;;;;;;7.50;4.50;;;;;18.75;38.49;101047.75;5078094;27;45497;-53
2022/02/24 05:47:57;;;;;;;;;4.50;2.25;;;;;18.75;38.51;101047.75;5079075;27;45379;-54
2022/02/24 05:50:22;;;;;;;;;2.75;2.00;;;;;18.74;38.29;101040.81;5079143;27;45409;-53
2022/02/24 05:52:48;;;;;;;;;5.00;3.00;;;;;18.73;38.31;101049.59;5079613;27;45460;-54
2022/02/24 05:55:13;;;;;;;;;2.25;2.25;;;;;18.74;38.37;101051.31;5078910;27;46112;-51
2022/02/24 05:57:44;;;;;;;;;2.25;2.25;;;;;18.74;38.46;101053.94;5077590;27;45371;-55
2022/02/24 06:00:11;;;;;;;;;5.00;2.00;;;;;18.75;38.19;101049.53;5078877;27;45369;-53
2022/02/24 06:02:37;;;;;;;;;4.00;4.00;;;;;18.74;38.50;101043.44;5079151;27;45552;-55
2022/02/24 06:05:02;;;;;;;;;3.00;2.75;;;;;18.74;38.38;101040.81;5078644;27;45370;-55
2022/02/24 06:07:28;;;;;;;;;2.00;2.00;;;;;18.73;38.23;101025.13;5078568;27;45335;-55
2022/02/24 06:09:53;;;;;;;;;2.75;1.50;;;;;18.73;38.61;101040.88;5078704;28;45333;-54
2022/02/24 06:12:18;;;;;;;;;4.75;3.50;;;;;18.73;38.26;101031.22;5079159;27;45637;-54
2022/02/24 06:14:44;;;;;;;;;3.50;3.50;;;;;18.74;38.36;101026.84;5078224;27;48720;-55
2022/02/24 06:17:09;;;;;;;;;4.25;3.75;;;;;18.72;38.33;101019.00;5078432;27;45515;-56
2022/02/24 06:19:34;;;;;;;;;3.50;2.75;;;;;18.73;38.34;101018.09;5078671;27;45373;-53
2022/02/24 06:22:00;;;;;;;;;3.25;2.25;;;;;18.73;38.26;101027.75;5078705;27;45426;-53
2022/02/24 06:24:25;;;;;;;;;4.33;3.00;;;;;18.73;38.43;101018.09;5078205;27;51275;-53
2022/02/24 06:26:50;;;;;;;;;2.50;2.50;;;;;18.73;38.38;101019.88;5093911;27;45812;-53
2022/02/24 06:29:16;;;;;;;;;3.50;2.00;;;;;18.73;38.11;101028.59;5079020;27;45466;-49
2022/02/24 06:31:41;;;;;;;;;2.00;2.00;;;;;18.73;38.19;101019.88;5078689;27;45547;-53
2022/02/24 06:34:07;;;;;;;;;2.00;2.00;;;;;18.73;38.29;101017.25;5078221;27;46249;-55
2022/02/24 06:36:32;;;;;;;;;4.50;4.25;;;;;18.71;38.29;101012.06;5078096;27;45250;-55
2022/02/24 06:38:58;;;;;;;;;4.00;2.00;;;;;18.72;38.09;101008.50;5078412;27;45367;-53
2022/02/24 06:41:26;;;;;;;;;5.25;2.50;;;;;18.72;38.30;101016.38;5078470;27;45330;-53
2022/02/24 06:43:52;;;;;;;;;3.00;2.00;;;;;18.71;38.07;101009.41;5076858;28;46104;-50
2022/02/24 06:46:18;;;;;;;;;3.25;3.00;;;;;18.72;38.12;101018.16;5078460;27;45417;-55
2022/02/24 06:48:44;;;;;;;;;2.25;2.25;;;;;18.72;38.34;101028.69;5078264;27;45478;-57
2022/02/24 06:51:09;;;;;;;;;3.00;3.00;;;;;18.69;38.13;101022.63;5078258;27;45425;-51
2022/02/24 06:53:35;;;;;;;;;3.50;2.00;;;;;18.72;38.13;101028.69;5077933;27;46026;-52
2022/02/24 06:56:00;;;;;;;;;2.75;2.00;;;;;18.72;38.40;101036.56;5077989;27;45436;-55
2022/02/24 06:58:25;;;;;;;;;1.00;1.00;;;;;18.70;38.04;101026.97;5077977;27;45374;-55
2022/02/24 07:00:51;;;;;;;;;4.00;3.00;;;;;18.70;38.26;101026.97;5078582;27;45465;-51
2022/02/24 07:03:17;;;;;;;;;3.00;3.00;;;;;18.70;38.12;101034.84;5077716;27;46257;-50
2022/02/24 07:05:42;;;;;;;;;4.00;4.00;;;;;18.71;37.99;101035.69;5077833;28;45362;-55
2022/02/24 07:08:08;;;;;;;;;2.00;1.00;;;;;18.70;38.20;101020.84;5077944;27;45249;-52
2022/02/24 07:10:33;;;;;;;;;2.00;2.00;;;;;18.68;38.27;101018.31;5078099;27;45229;-53
2022/02/24 07:12:59;;;;;;;;;4.00;2.00;;;;;18.70;38.14;101024.34;5077734;27;45349;-52
2022/02/24 07:15:25;;;;;;;;;4.25;2.00;;;;;18.69;38.15;101016.50;5077587;27;45230;-54
2022/02/24 07:17:50;;;;;;;;;1.75;1.75;;;;;18.69;38.30;101041.00;5078038;27;45337;-54
2022/02/24 07:20:18;;;;;;;;;2.25;2.25;;;;;18.69;37.85;101020.00;5077841;27;45290;-54
2022/02/24 07:22:44;;;;;;;;;2.00;2.00;;;;;18.69;38.15;101019.13;5077453;27;46141;-52
2022/02/24 07:25:12;;;;;;;;;2.75;2.00;;;;;18.69;37.93;101033.13;5077501;27;45329;-52
2022/02/24 07:27:38;;;;;;;;;3.25;3.00;;;;;18.68;37.81;101041.09;5077799;27;45939;-52
2022/02/24 07:30:05;;;;;;;;;1.25;1.25;;;;;18.70;37.87;101039.22;5077789;27;45409;-52
2022/02/24 07:32:31;;;;;;;;;3.50;3.00;;;;;18.70;38.17;101044.47;5077262;27;46432;-51
2022/02/24 07:34:56;;;;;;;;;5.25;2.25;;;;;18.70;37.80;101026.97;5077089;27;45445;-55
2022/02/24 07:37:22;;;;;;;;;2.00;2.00;;;;;18.71;37.95;101030.44;5076620;27;45326;-52
2022/02/24 07:39:48;;;;;;;;;1.00;1.00;;;;;18.71;37.85;101027.81;5077637;27;45326;-52
2022/02/24 07:42:14;;;;;;;;;2.00;2.00;;;;;18.72;38.10;101031.28;5077233;27;45449;-52
2022/02/24 07:44:39;;;;;;;;;1.50;1.50;;;;;18.69;38.07;101022.63;5077141;28;45319;-54
2022/02/24 07:47:05;;;;;;;;;3.25;3.00;;;;;18.72;37.85;101029.50;5076065;28;45582;-53
2022/02/24 07:49:30;;;;;;;;;3.50;2.50;;;;;18.70;37.80;101024.34;5077317;27;45327;-53
2022/02/24 07:51:56;;;;;;;;;3.00;2.00;;;;;18.73;37.97;101017.25;5077071;27;45467;-53
2022/02/24 07:54:22;;;;;;;;;4.00;3.50;;;;;18.73;37.59;101025.97;5077478;27;45415;-53
2022/02/24 07:56:50;;;;;;;;;2.75;2.75;;;;;18.74;37.77;101026.84;5075730;27;45232;-53
2022/02/24 07:59:16;;;;;;;;;5.25;2.25;;;;;18.74;38.12;101018.97;5077329;27;45231;-53
2022/02/24 08:01:42;;;;;;;;;4.50;2.00;;;;;18.72;37.85;101013.75;5076885;27;46197;-54
2022/02/24 08:04:07;;;;;;;;;2.00;2.00;;;;;18.72;37.83;101016.38;5076909;27;45402;-56
2022/02/24 08:06:34;;;;;;;;;4.50;3.00;;;;;18.71;38.00;101019.94;5076919;27;45455;-54
2022/02/24 08:09:00;;;;;;;;;2.25;2.25;;;;;18.73;37.85;101012.84;5077190;27;45437;-55
2022/02/24 08:11:25;;;;;;;;;3.25;2.50;;;;;18.72;37.65;101005.88;5077153;27;46178;-50
2022/02/24 08:13:50;;;;;;;;;3.00;3.00;;;;;18.72;37.81;101000.63;5077017;27;45444;-56
2022/02/24 08:16:16;;;;;;;;;4.00;2.50;;;;;18.72;37.72;101003.25;5076706;27;45381;-52
2022/02/24 08:18:41;;;;;;;;;3.00;3.00;;;;;18.72;37.89;101011.13;5077178;27;45282;-57
2022/02/24 08:21:06;;;;;;;;;2.00;2.00;;;;;18.74;37.50;101011.09;5076761;27;46123;-54
2022/02/24 08:23:32;;;;;;;;;5.50;1.00;;;;;18.73;37.76;100999.72;5076644;27;45428;-56
2022/02/24 08:25:57;;;;;;;;;4.00;2.25;;;;;18.73;37.65;101004.97;5076876;27;45171;-55
2022/02/24 08:28:22;;;;;;;;;1.00;1.00;;;;;18.73;37.57;100999.72;5077335;27;45525;-55
2022/02/24 08:30:48;;;;;;;;;2.00;2.00;;;;;18.74;37.74;100998.78;5076579;27;45354;-52
2022/02/24 08:33:13;;;;;;;;;2.75;1.75;;;;;18.75;37.56;101002.25;5075254;28;45291;-56
2022/02/24 08:35:38;;;;;;;;;2.00;2.00;;;;;18.75;37.73;101000.50;5076747;27;45271;-55
2022/02/24 08:38:05;;;;;;;;;3.00;1.00;;;;;18.75;37.40;101000.50;5076868;27;45301;-55
2022/02/24 08:40:31;;;;;;;;;2.75;2.00;;;;;18.75;37.66;101000.50;5076431;27;46257;-54
2022/02/24 08:42:56;;;;;;;;;2.00;1.50;;;;;18.75;37.54;101004.88;5076829;28;45941;-55
2022/02/24 08:45:22;;;;;;;;;2.75;1.75;;;;;18.76;37.68;100998.72;5076756;28;45828;-54
2022/02/24 08:47:48;;;;;;;;;5.25;3.25;;;;;18.74;37.49;100992.69;5076593;27;45494;-52
2022/02/24 08:50:14;;;;;;;;;3.00;1.25;;;;;18.74;37.63;100992.69;5079883;27;45271;-53
2022/02/24 08:52:39;;;;;;;;;3.00;2.75;;;;;18.74;37.73;100993.53;5079814;27;45922;-54
2022/02/24 08:55:05;;;;;;;;;5.00;2.25;;;;;18.74;37.40;100990.91;5080038;27;45390;-54
2022/02/24 08:57:30;;;;;;;;;3.00;2.75;;;;;18.74;37.35;100988.28;5080072;27;45414;-57
2022/02/24 08:59:56;;;;;;;;;2.00;2.00;;;;;18.75;37.62;101000.50;5079952;27;46103;-54
2022/02/24 09:02:21;;;;;;;;;1.50;1.00;;;;;18.76;37.40;101007.47;5079819;27;45400;-54
2022/02/24 09:04:47;;;;;;;;;2.00;2.00;;;;;18.77;37.55;100998.66;5079934;27;45180;-56
2022/02/24 09:07:12;;;;;;;;;3.25;2.00;;;;;18.77;37.41;100998.66;5079997;27;45541;-53
2022/02/24 09:09:37;;;;;;;;;5.00;2.00;;;;;18.77;37.35;101003.91;5079713;27;46447;-53
2022/02/24 09:12:03;;;;;;;;;2.00;2.00;;;;;18.75;37.54;100997.88;5078620;28;45283;-54
2022/02/24 09:14:29;;;;;;;;;4.00;3.00;;;;;18.75;37.28;100997.00;5078339;27;45348;-51
2022/02/24 09:16:55;;;;;;;;;2.00;2.00;;;;;18.77;37.60;101000.41;5080185;27;45273;-53
2022/02/24 09:19:21;;;;;;;;;2.00;2.00;;;;;18.76;37.49;100994.31;5079534;27;45242;-53
2022/02/24 09:21:47;;;;;;;;;2.75;2.00;;;;;18.75;37.22;100997.00;5079475;27;45357;-54
2022/02/24 09:24:13;;;;;;;;;3.50;2.00;;;;;18.74;37.48;100990.09;5079547;27;45347;-54
2022/02/24 09:26:38;;;;;;;;;1.00;1.00;;;;;18.75;37.50;100995.25;5079800;27;45535;-54
2022/02/24 09:29:05;;;;;;;;;3.50;1.50;;;;;18.75;37.67;100997.88;5077987;27;47833;-54
2022/02/24 09:31:32;;;;;;;;;2.25;1.25;;;;;18.75;37.26;100992.63;5079315;28;45937;-51
2022/02/24 09:33:57;;;;;;;;;2.00;2.00;;;;;18.75;37.29;100995.25;5079771;27;45357;-53
2022/02/24 09:36:22;;;;;;;;;1.75;1.50;;;;;18.76;37.68;100999.59;5079596;27;45619;-55
2022/02/24 09:38:48;;;;;;;;;1.50;1.00;;;;;18.74;37.36;100993.53;5079140;27;45393;-54
2022/02/24 09:41:14;;;;;;;;;2.00;2.00;;;;;18.75;37.37;100995.25;5079181;28;45321;-55
2022/02/24 09:43:40;;;;;;;;;1.25;1.25;;;;;18.76;37.45;100989.09;5079333;27;45158;-52
2022/02/24 09:46:11;;;;;;;;;3.50;2.00;;;;;18.76;37.47;100978.56;5079493;27;45192;-51
2022/02/24 09:48:41;;;;;;;;;2.25;1.75;;;;;18.77;37.47;100975.03;5077446;28;45361;-53
2022/02/24 09:51:10;;;;;;;;;2.00;2.00;;;;;18.77;37.33;100967.16;5079201;27;45478;-54
2022/02/24 09:53:37;;;;;;;;;2.00;2.00;;;;;18.78;37.49;100971.50;5078914;27;45403;-52
2022/02/24 09:56:04;;;;;;;;;1.00;1.00;;;;;18.78;37.56;100962.75;5078053;27;45384;-51
2022/02/24 09:58:31;;;;;;;;;2.75;1.00;;;;;18.77;37.48;100954.03;5079101;27;46188;-52
2022/02/24 10:00:59;;;;;;;;;2.00;2.00;;;;;18.80;37.57;100968.78;5078316;27;45422;-52
2022/02/24 10:03:31;;;;;;;;;3.00;1.00;;;;;18.78;37.44;100968.00;5079180;27;45710;-52
2022/02/24 10:05:58;;;;;;;;;1.00;1.00;;;;;18.79;37.48;100967.94;5079430;27;45518;-53
2022/02/24 10:08:39;;;;;;;;;3.25;1.25;;;;;18.80;37.43;100956.50;5078693;27;46178;-51
2022/02/24 10:11:22;;;;;;;;;2.00;1.75;;;;;18.81;37.54;100952.94;5078701;27;45747;-55
2022/02/24 10:14:20;;;;;;;;;1.00;1.00;;;;;18.83;37.30;100958.16;5094584;27;45323;-56
2022/02/24 10:16:57;;;;;;;;;1.00;1.00;;;;;18.81;37.71;100954.72;5077781;27;45577;-54
2022/02/24 10:19:43;;;;;;;;;2.00;2.00;;;;;18.84;37.23;100946.72;5077092;28;46409;-51
2022/02/24 10:22:20;;;;;;;;;1.00;1.00;;;;;18.85;37.39;100951.06;5078361;27;45922;-52
2022/02/24 10:24:59;;;;;;;;;1.50;1.00;;;;;18.85;37.24;100962.41;5078511;27;45344;-52
2022/02/24 10:27:27;;;;;;;;;2.25;1.25;;;;;18.85;37.43;100962.41;5078882;27;45414;-55
2022/02/24 10:30:19;;;;;;;;;3.00;1.50;;;;;18.87;37.28;100953.59;5078450;27;46280;-55
2022/02/24 10:32:46;;;;;;;;;2.50;2.00;;;;;18.88;37.26;100943.00;5078492;28;45176;-56
2022/02/24 10:35:19;;;;;;;;;2.25;1.50;;;;;18.90;37.49;100969.22;5078620;27;45416;-53
2022/02/24 10:37:52;;;;;;;;;1.25;1.25;;;;;18.89;37.63;100965.72;5078513;27;45278;-54
2022/02/24 10:40:17;;;;;;;;;1.25;0.50;;;;;18.90;37.22;100966.59;5076839;27;45638;-53
2022/02/24 10:42:43;;;;;;;;;2.25;0.50;;;;;18.89;37.28;100967.50;5078159;27;45360;-52
2022/02/24 10:45:11;;;;;;;;;3.25;2.00;;;;;18.89;37.33;100962.25;5078413;27;45283;-51
2022/02/24 10:47:54;;;;;;;;;1.00;1.00;;;;;18.89;37.47;100970.13;5078428;27;45272;-53
2022/02/24 10:50:19;;;;;;;;;1.00;0.75;;;;;18.88;37.24;100965.81;5077972;27;46442;-52
2022/02/24 10:52:44;;;;;;;;;0.00;0.00;;;;;18.89;37.39;100972.75;5078076;27;45291;-54
2022/02/24 10:55:12;;;;;;;;;1.00;1.00;;;;;18.84;37.51;100963.31;5078177;27;45330;-53
2022/02/24 10:57:37;;;;;;;;;1.25;1.00;;;;;18.88;37.58;100968.44;5076791;28;45457;-54
2022/02/24 11:00:04;;;;;;;;;3.00;2.00;;;;;18.88;37.42;100963.19;5078314;27;45379;-55
2022/02/24 11:02:29;;;;;;;;;0.00;0.00;;;;;18.88;37.46;100957.94;5078241;27;45712;-51
2022/02/24 11:04:55;;;;;;;;;1.75;1.75;;;;;18.85;37.18;100953.69;5078110;27;45409;-52
2022/02/24 11:07:23;;;;;;;;;1.00;1.00;;;;;18.88;37.29;100944.78;5078109;27;45569;-53
2022/02/24 11:09:49;;;;;;;;;1.25;0.75;;;;;18.87;37.67;100943.09;5077776;27;47106;-53
2022/02/24 11:12:16;;;;;;;;;1.00;1.00;;;;;18.89;37.42;100922.88;5077867;28;45247;-54
2022/02/24 11:14:44;;;;;;;;;0.00;0.00;;;;;18.90;37.45;100933.28;5077893;28;45314;-53
2022/02/24 11:17:11;;;;;;;;;0.25;0.25;;;;;18.88;37.43;100915.91;5078095;27;45445;-54
2022/02/24 11:19:38;;;;;;;;;0.25;0.00;;;;;18.91;37.45;100915.75;5077729;27;46029;-54